Time;durP1;ratioP1;P1;durP2;ratioP2;P2;SDS_P1;SDS_P2;PMS_P1;PMS_P2;Temp;Humidity;BMP_temperature;BMP_pressure;BME280_temperature;BME280_humidity;BME280_pressure;Samples;Min_cycle;Max_cycle;Signal;HPM_P1;HPM_P2
2022/12/29 00:02:02;;;;;;;1.88;0.98;;;18.20;55.60;;;;;;5055510;28;20308;-58
2022/12/29 00:04:27;;;;;;;0.80;0.80;;;18.20;55.60;;;;;;5055209;28;20733;-58
2022/12/29 00:06:54;;;;;;;0.73;0.73;;;18.20;55.60;;;;;;5054177;28;20179;-58
2022/12/29 00:09:19;;;;;;;0.75;0.73;;;18.10;55.60;;;;;;5055148;28;20210;-58
2022/12/29 00:11:45;;;;;;;0.82;0.82;;;18.20;55.60;;;;;;5054783;28;20183;-59
2022/12/29 00:16:54;;;;;;;1.23;1.00;;;18.10;55.60;;;;;;5054558;28;20284;-58
2022/12/29 00:35:53;;;;;;;1.10;1.00;;;18.10;55.60;;;;;;5053549;28;20236;-59
2022/12/29 00:44:05;;;;;;;0.80;0.80;;;18.00;55.70;;;;;;5054280;28;20170;-59
2022/12/29 00:46:33;;;;;;;1.08;0.90;;;18.00;55.70;;;;;;5054348;28;20624;-59
2022/12/29 00:51:43;;;;;;;1.05;0.77;;;18.00;55.60;;;;;;5054073;28;20244;-58
2022/12/29 00:54:09;;;;;;;0.70;0.70;;;18.00;55.70;;;;;;5054407;28;20168;-58
2022/12/29 00:56:34;;;;;;;0.85;0.85;;;18.00;55.70;;;;;;5053372;28;20175;-58
2022/12/29 00:59:01;;;;;;;0.60;0.60;;;18.00;55.70;;;;;;5054219;28;20644;-58
2022/12/29 01:01:27;;;;;;;0.82;0.70;;;18.00;55.70;;;;;;5053704;28;20185;-60
2022/12/29 01:03:52;;;;;;;0.73;0.73;;;17.90;55.70;;;;;;5054119;28;20608;-60
2022/12/29 01:06:18;;;;;;;0.70;0.70;;;18.00;55.80;;;;;;5054158;28;20744;-59
2022/12/29 01:08:43;;;;;;;0.95;0.70;;;17.90;55.70;;;;;;5053187;28;20187;-58
2022/12/29 01:11:10;;;;;;;0.90;0.85;;;17.90;55.70;;;;;;5054021;28;20179;-58
2022/12/29 01:13:37;;;;;;;0.80;0.77;;;17.90;55.70;;;;;;5053878;28;20216;-58
2022/12/29 01:16:03;;;;;;;0.73;0.68;;;17.90;55.70;;;;;;5053280;28;20206;-58
2022/12/29 01:18:29;;;;;;;0.80;0.80;;;17.90;55.80;;;;;;5053907;28;20532;-59
2022/12/29 01:21:01;;;;;;;0.73;0.73;;;17.90;55.80;;;;;;5053693;28;20183;-58
2022/12/29 01:23:27;;;;;;;0.65;0.60;;;17.90;55.80;;;;;;5053078;28;20171;-58
2022/12/29 01:25:52;;;;;;;0.80;0.80;;;17.80;55.70;;;;;;5053508;28;20424;-58
2022/12/29 01:28:18;;;;;;;1.67;0.80;;;17.80;55.70;;;;;;5053819;28;20636;-58
2022/12/29 01:30:43;;;;;;;1.08;1.05;;;17.80;55.70;;;;;;5052657;28;20175;-58
2022/12/29 01:33:09;;;;;;;1.40;0.80;;;17.80;55.70;;;;;;5053742;28;20175;-58
2022/12/29 01:35:34;;;;;;;0.70;0.70;;;17.80;56.40;;;;;;5053334;28;20175;-58
2022/12/29 01:38:00;;;;;;;0.70;0.70;;;17.70;55.70;;;;;;5052890;28;20183;-58
2022/12/29 01:40:25;;;;;;;0.70;0.65;;;17.80;55.80;;;;;;5053549;28;20175;-58
2022/12/29 01:42:51;;;;;;;0.70;0.70;;;17.80;55.80;;;;;;5053191;28;20182;-59
2022/12/29 01:45:17;;;;;;;0.80;0.80;;;17.80;55.70;;;;;;5052895;28;20215;-59
2022/12/29 01:47:45;;;;;;;0.50;0.50;;;17.80;55.80;;;;;;5053275;28;20171;-58
2022/12/29 01:50:15;;;;;;;0.80;0.80;;;17.70;55.80;;;;;;5052235;28;20183;-60
2022/12/29 01:52:44;;;;;;;1.10;0.93;;;17.70;55.80;;;;;;5052280;28;20576;-60
2022/12/29 01:55:09;;;;;;;0.75;0.75;;;17.70;55.80;;;;;;5052030;28;20178;-60
2022/12/29 01:57:37;;;;;;;0.95;0.70;;;17.70;55.90;;;;;;5052392;28;20175;-60
2022/12/29 02:00:07;;;;;;;0.60;0.60;;;17.70;55.80;;;;;;5052128;28;20171;-60
2022/12/29 02:02:32;;;;;;;0.98;0.93;;;17.70;55.80;;;;;;5052895;28;20171;-60
2022/12/29 02:04:58;;;;;;;1.13;1.00;;;17.70;55.90;;;;;;5050816;28;20210;-60
2022/12/29 02:07:23;;;;;;;0.65;0.60;;;17.70;55.90;;;;;;5051834;28;20187;-60
2022/12/29 02:09:49;;;;;;;0.60;0.60;;;17.70;55.90;;;;;;5051500;28;20179;-60
2022/12/29 02:12:16;;;;;;;0.68;0.68;;;17.70;55.90;;;;;;5051362;28;20179;-60
2022/12/29 02:14:41;;;;;;;0.68;0.68;;;17.70;55.90;;;;;;5051769;28;20182;-60
2022/12/29 02:17:12;;;;;;;0.70;0.70;;;17.70;55.90;;;;;;5051815;28;20218;-61
2022/12/29 02:20:11;;;;;;;0.70;0.70;;;17.70;56.00;;;;;;5052065;28;20250;-60
2022/12/29 02:22:52;;;;;;;0.88;0.70;;;17.70;55.90;;;;;;5051478;28;20267;-60
2022/12/29 02:25:44;;;;;;;0.80;0.80;;;17.70;56.00;;;;;;5051877;28;20232;-58
2022/12/29 02:28:37;;;;;;;0.70;0.70;;;17.70;56.00;;;;;;5051969;28;20194;-58
2022/12/29 02:31:41;;;;;;;0.90;0.70;;;17.60;55.90;;;;;;5052715;28;20652;-58
2022/12/29 02:34:35;;;;;;;0.60;0.60;;;17.60;56.00;;;;;;5050892;28;20212;-58
2022/12/29 02:37:26;;;;;;;0.85;0.80;;;17.60;56.00;;;;;;5051556;28;20179;-58
2022/12/29 02:40:16;;;;;;;0.73;0.60;;;17.60;56.00;;;;;;5051021;28;20179;-59
2022/12/29 02:43:00;;;;;;;0.63;0.63;;;17.60;56.00;;;;;;5052507;28;20179;-59
2022/12/29 02:45:38;;;;;;;0.85;0.75;;;17.60;56.00;;;;;;5052614;28;20210;-61
2022/12/29 02:48:18;;;;;;;0.85;0.73;;;17.60;56.00;;;;;;5050993;28;20253;-58
2022/12/29 02:50:57;;;;;;;0.85;0.70;;;17.60;56.00;;;;;;5051242;28;20182;-58
2022/12/29 02:54:40;;;;;;;1.58;1.02;;;17.60;56.00;;;;;;5051335;28;20178;-58
2022/12/29 02:56:08;;;;;;;1.05;0.70;;;17.50;56.00;;;;;;5050788;28;20211;-58
2022/12/29 02:58:34;;;;;;;0.70;0.70;;;17.50;56.00;;;;;;5052249;28;20207;-58
2022/12/29 03:01:21;;;;;;;0.60;0.60;;;17.50;56.00;;;;;;5051758;28;20171;-58
2022/12/29 03:03:47;;;;;;;0.77;0.60;;;17.50;56.00;;;;;;5052309;28;20177;-58
2022/12/29 03:06:12;;;;;;;1.20;0.77;;;17.50;56.00;;;;;;5052339;28;20516;-58
2022/12/29 03:08:42;;;;;;;1.10;0.60;;;17.50;56.00;;;;;;5051671;28;20171;-58
2022/12/29 03:17:01;;;;;;;0.60;0.60;;;17.50;56.00;;;;;;5052973;28;20237;-59
2022/12/29 03:19:37;;;;;;;0.60;0.57;;;17.50;56.00;;;;;;5054860;28;20561;-59
2022/12/29 03:24:52;;;;;;;0.70;0.70;;;17.50;56.00;;;;;;5055640;28;20549;-60
2022/12/29 03:27:20;;;;;;;0.63;0.63;;;17.50;56.00;;;;;;5054795;28;20505;-60
2022/12/29 03:29:52;;;;;;;0.63;0.63;;;17.40;55.90;;;;;;5053916;28;20262;-59
2022/12/29 03:32:18;;;;;;;0.60;0.60;;;17.50;56.00;;;;;;5054964;28;20175;-60
2022/12/29 03:34:44;;;;;;;0.70;0.70;;;17.50;56.00;;;;;;5054422;28;20178;-59
2022/12/29 03:37:12;;;;;;;0.57;0.57;;;17.40;55.90;;;;;;5053970;28;20533;-60
2022/12/29 03:39:38;;;;;;;0.70;0.50;;;17.40;55.90;;;;;;5054261;28;20179;-60
2022/12/29 03:42:06;;;;;;;0.70;0.70;;;17.40;55.90;;;;;;5054717;28;20258;-60
2022/12/29 03:44:33;;;;;;;1.00;0.70;;;17.50;56.00;;;;;;5053739;28;20270;-60
2022/12/29 03:46:59;;;;;;;0.90;0.70;;;17.40;55.90;;;;;;5055716;28;20210;-60
2022/12/29 03:49:24;;;;;;;1.33;0.63;;;17.40;55.90;;;;;;5055675;28;20167;-60
2022/12/29 03:51:50;;;;;;;1.00;0.90;;;17.40;55.90;;;;;;5054584;28;20186;-59
2022/12/29 03:54:15;;;;;;;0.85;0.63;;;17.40;55.90;;;;;;5055457;28;20178;-59
2022/12/29 03:56:41;;;;;;;0.60;0.60;;;17.40;55.90;;;;;;5055372;28;20177;-59
2022/12/29 03:59:06;;;;;;;1.15;0.63;;;17.40;55.90;;;;;;5054817;28;20179;-59
2022/12/29 04:01:32;;;;;;;0.85;0.60;;;17.40;55.90;;;;;;5055127;28;20262;-59
2022/12/29 04:03:57;;;;;;;1.15;0.70;;;17.40;55.90;;;;;;5055556;28;20626;-59
2022/12/29 04:06:23;;;;;;;0.80;0.70;;;17.40;55.90;;;;;;5054736;28;20740;-60
2022/12/29 04:08:49;;;;;;;1.25;0.80;;;17.30;55.90;;;;;;5055051;28;20258;-59
2022/12/29 04:11:14;;;;;;;0.80;0.80;;;17.40;55.90;;;;;;5054866;28;20166;-59
2022/12/29 04:13:40;;;;;;;0.85;0.70;;;17.40;56.00;;;;;;5054845;28;20175;-59
2022/12/29 04:16:06;;;;;;;0.47;0.43;;;17.30;55.90;;;;;;5055083;28;20179;-59
2022/12/29 04:18:32;;;;;;;0.75;0.60;;;17.30;55.90;;;;;;5054164;28;20196;-60
2022/12/29 04:21:00;;;;;;;1.45;0.80;;;17.30;55.90;;;;;;5055238;28;20179;-60
2022/12/29 04:23:27;;;;;;;0.60;0.60;;;17.30;55.90;;;;;;5054981;28;20178;-60
2022/12/29 04:25:52;;;;;;;0.90;0.77;;;17.40;55.90;;;;;;5053926;28;20219;-59
2022/12/29 04:28:18;;;;;;;0.65;0.60;;;17.30;55.90;;;;;;5054346;28;20652;-59
2022/12/29 04:30:43;;;;;;;1.13;0.52;;;17.30;55.90;;;;;;5054313;28;20186;-58
2022/12/29 04:33:09;;;;;;;0.85;0.63;;;17.30;55.90;;;;;;5054361;28;20175;-59
2022/12/29 04:35:35;;;;;;;1.30;0.65;;;17.30;55.90;;;;;;5054633;28;20718;-59
2022/12/29 04:38:00;;;;;;;0.85;0.50;;;17.30;55.90;;;;;;5054775;28;20172;-59
2022/12/29 04:40:26;;;;;;;0.52;0.50;;;17.30;55.90;;;;;;5054122;28;20641;-59
2022/12/29 04:42:51;;;;;;;0.50;0.50;;;17.30;55.90;;;;;;5054558;28;20175;-59
2022/12/29 04:45:17;;;;;;;0.98;0.57;;;17.30;55.90;;;;;;5054524;28;20534;-59
2022/12/29 04:47:42;;;;;;;0.60;0.60;;;17.30;55.90;;;;;;5053520;28;20771;-59
2022/12/29 04:50:08;;;;;;;1.25;0.70;;;17.30;55.90;;;;;;5054420;28;20167;-59
2022/12/29 04:52:34;;;;;;;0.73;0.73;;;17.30;56.00;;;;;;5054045;28;20587;-58
2022/12/29 04:54:59;;;;;;;1.00;0.60;;;17.30;56.00;;;;;;5053875;28;20175;-58
2022/12/29 04:57:25;;;;;;;0.88;0.60;;;17.30;56.00;;;;;;5054252;28;20207;-59
2022/12/29 04:59:50;;;;;;;0.60;0.60;;;17.30;56.10;;;;;;5053921;28;20213;-58
2022/12/29 05:02:16;;;;;;;1.95;0.50;;;17.20;56.00;;;;;;5053407;28;20186;-59
2022/12/29 05:04:42;;;;;;;0.85;0.50;;;17.20;56.00;;;;;;5053828;28;20179;-59
2022/12/29 05:07:07;;;;;;;0.93;0.60;;;17.30;56.10;;;;;;5054078;28;20749;-59
2022/12/29 05:09:33;;;;;;;1.23;0.60;;;17.20;56.00;;;;;;5053409;28;20228;-59
2022/12/29 05:11:58;;;;;;;0.90;0.63;;;17.20;56.00;;;;;;5054253;28;20547;-59
2022/12/29 05:14:24;;;;;;;2.42;1.08;;;17.20;56.00;;;;;;5054098;28;20548;-59
2022/12/29 05:16:49;;;;;;;1.30;0.80;;;17.20;56.00;;;;;;5052832;28;20720;-59
2022/12/29 05:19:16;;;;;;;1.10;0.60;;;17.20;56.00;;;;;;5053876;28;20171;-59
2022/12/29 05:21:42;;;;;;;1.50;0.77;;;17.20;56.00;;;;;;5052761;28;20250;-59
2022/12/29 05:24:07;;;;;;;1.20;0.85;;;17.20;56.00;;;;;;5053747;28;20673;-59
2022/12/29 05:26:33;;;;;;;1.02;0.57;;;17.20;56.00;;;;;;5053511;28;20218;-59
2022/12/29 05:28:59;;;;;;;0.77;0.77;;;17.20;56.60;;;;;;5053127;28;20502;-58
2022/12/29 05:31:25;;;;;;;1.17;0.45;;;17.20;56.00;;;;;;5053762;28;20174;-58
2022/12/29 05:33:50;;;;;;;0.50;0.50;;;17.20;56.00;;;;;;5053395;28;20638;-59
2022/12/29 05:36:16;;;;;;;0.68;0.50;;;17.20;56.00;;;;;;5052994;28;20649;-59
2022/12/29 05:38:41;;;;;;;1.70;0.70;;;17.20;56.00;;;;;;5052582;28;20209;-59
2022/12/29 05:41:07;;;;;;;0.60;0.40;;;17.20;56.00;;;;;;5053682;28;20179;-59
2022/12/29 05:43:32;;;;;;;0.98;0.60;;;17.20;56.00;;;;;;5052520;28;20171;-59
2022/12/29 05:45:58;;;;;;;1.38;0.63;;;17.20;56.00;;;;;;5053504;28;20618;-59
2022/12/29 05:48:24;;;;;;;1.00;0.57;;;17.20;56.10;;;;;;5053471;28;20621;-59
2022/12/29 05:50:50;;;;;;;0.50;0.50;;;17.10;56.00;;;;;;5052242;28;20178;-59
2022/12/29 05:53:15;;;;;;;1.30;0.55;;;17.10;56.10;;;;;;5053515;28;20171;-58
2022/12/29 05:55:41;;;;;;;1.63;0.52;;;17.10;56.10;;;;;;5053235;28;20186;-59
2022/12/29 05:58:06;;;;;;;1.80;0.55;;;17.10;56.10;;;;;;5052634;28;20175;-59
2022/12/29 06:00:32;;;;;;;1.15;0.73;;;17.10;56.10;;;;;;5053101;28;20179;-59
2022/12/29 06:02:57;;;;;;;1.45;0.68;;;17.10;56.10;;;;;;5053178;28;20179;-59
2022/12/29 06:05:23;;;;;;;0.80;0.60;;;17.10;56.10;;;;;;5052341;28;20680;-59
2022/12/29 06:07:48;;;;;;;1.73;0.50;;;17.10;56.10;;;;;;5052757;28;20633;-59
2022/12/29 06:10:14;;;;;;;0.70;0.40;;;17.10;56.10;;;;;;5053182;28;20183;-59
2022/12/29 06:12:39;;;;;;;1.73;0.60;;;17.10;56.10;;;;;;5052221;28;20175;-58
2022/12/29 06:15:06;;;;;;;1.08;0.60;;;17.10;56.10;;;;;;5052909;28;20652;-59
2022/12/29 06:17:32;;;;;;;1.00;0.60;;;17.10;56.10;;;;;;5052515;28;20268;-59
2022/12/29 06:19:58;;;;;;;2.38;0.80;;;17.10;56.10;;;;;;5052126;28;20252;-59
2022/12/29 06:22:23;;;;;;;0.93;0.60;;;17.00;56.00;;;;;;5052852;28;20175;-59
2022/12/29 06:24:49;;;;;;;1.25;0.60;;;17.00;56.00;;;;;;5052692;28;20187;-59
2022/12/29 06:27:14;;;;;;;1.05;0.60;;;17.00;56.00;;;;;;5052345;28;20301;-61
2022/12/29 06:29:40;;;;;;;1.85;0.80;;;17.00;56.00;;;;;;5052611;28;20537;-60
2022/12/29 06:32:09;;;;;;;1.23;0.70;;;17.00;55.90;;;;;;5052043;28;20262;-61
2022/12/29 06:34:34;;;;;;;1.30;0.52;;;17.00;55.90;;;;;;5052426;28;20175;-60
2022/12/29 06:37:00;;;;;;;1.85;0.90;;;17.00;55.90;;;;;;5052841;28;20173;-60
2022/12/29 06:39:26;;;;;;;1.25;0.90;;;17.00;55.90;;;;;;5052123;28;20542;-60
2022/12/29 06:41:53;;;;;;;1.33;0.70;;;17.00;55.90;;;;;;5052477;28;20655;-60
2022/12/29 06:44:19;;;;;;;1.67;0.73;;;17.00;55.90;;;;;;5052854;28;20203;-60
2022/12/29 06:46:45;;;;;;;0.95;0.60;;;16.90;55.80;;;;;;5051673;28;20246;-60
2022/12/29 06:49:10;;;;;;;0.70;0.70;;;16.90;55.80;;;;;;5052595;28;20167;-60
2022/12/29 06:51:36;;;;;;;0.77;0.68;;;17.00;55.80;;;;;;5056198;28;20190;-59
2022/12/29 06:54:01;;;;;;;2.15;0.80;;;16.90;55.80;;;;;;5056099;28;20319;-59
2022/12/29 06:56:27;;;;;;;0.68;0.68;;;16.90;55.80;;;;;;5056666;28;20545;-59
2022/12/29 06:58:52;;;;;;;1.50;0.80;;;16.90;55.80;;;;;;5056330;28;20629;-59
2022/12/29 07:01:18;;;;;;;2.28;0.70;;;16.90;55.80;;;;;;5055782;28;20186;-59
2022/12/29 07:03:43;;;;;;;1.45;0.73;;;16.90;55.70;;;;;;5056115;28;20175;-59
2022/12/29 07:06:09;;;;;;;0.93;0.75;;;16.90;55.70;;;;;;5056538;28;20210;-59
2022/12/29 07:08:34;;;;;;;2.15;0.80;;;16.90;55.80;;;;;;5055616;28;20178;-59
2022/12/29 07:11:00;;;;;;;1.75;0.75;;;16.80;55.70;;;;;;5056495;28;20175;-59
2022/12/29 07:13:25;;;;;;;2.72;0.80;;;16.90;55.70;;;;;;5056467;28;20186;-60
2022/12/29 07:15:51;;;;;;;1.10;0.57;;;16.90;55.70;;;;;;5055242;28;20310;-60
2022/12/29 07:18:16;;;;;;;0.77;0.77;;;16.90;55.70;;;;;;5056008;28;20223;-60
2022/12/29 07:20:42;;;;;;;2.13;0.90;;;16.90;55.70;;;;;;5055937;28;20309;-60
2022/12/29 07:23:07;;;;;;;1.67;0.75;;;16.90;56.00;;;;;;5055576;28;20257;-60
2022/12/29 07:25:34;;;;;;;1.42;0.68;;;16.90;55.60;;;;;;5055784;28;20211;-60
2022/12/29 07:28:00;;;;;;;1.63;0.70;;;16.90;55.70;;;;;;5056071;28;20175;-57
2022/12/29 07:30:25;;;;;;;1.45;0.85;;;16.80;55.60;;;;;;5055374;28;20187;-58
2022/12/29 07:32:51;;;;;;;2.55;0.77;;;16.80;55.60;;;;;;5055455;28;20186;-58
2022/12/29 07:35:16;;;;;;;0.65;0.50;;;16.90;55.60;;;;;;5055359;28;20258;-58
2022/12/29 07:37:42;;;;;;;1.30;0.80;;;16.80;55.60;;;;;;5055665;28;20266;-58
2022/12/29 07:40:09;;;;;;;2.00;1.10;;;16.80;55.60;;;;;;5055909;28;20207;-58
2022/12/29 07:42:34;;;;;;;3.50;0.82;;;16.90;55.60;;;;;;5037013;28;20176;-59
2022/12/29 07:45:00;;;;;;;1.38;0.80;;;16.80;55.50;;;;;;5055634;28;20177;-59
2022/12/29 07:47:26;;;;;;;1.67;0.80;;;16.80;55.50;;;;;;5055650;28;20183;-58
2022/12/29 07:49:51;;;;;;;1.08;0.52;;;16.80;55.60;;;;;;5054786;28;20175;-58
2022/12/29 07:52:17;;;;;;;2.42;0.88;;;16.80;55.50;;;;;;5055791;28;20263;-58
2022/12/29 07:54:42;;;;;;;1.05;0.80;;;16.80;55.50;;;;;;5055154;28;20604;-58
2022/12/29 07:57:08;;;;;;;2.03;0.90;;;16.80;55.50;;;;;;5054736;28;20238;-58
2022/12/29 07:59:33;;;;;;;4.03;1.10;;;16.80;55.50;;;;;;5055152;28;20262;-58
2022/12/29 08:01:59;;;;;;;1.40;1.00;;;16.80;55.50;;;;;;5054272;28;20215;-58
2022/12/29 08:04:24;;;;;;;1.70;0.80;;;16.80;55.50;;;;;;5054513;28;20187;-58
2022/12/29 08:06:50;;;;;;;1.60;0.63;;;16.80;55.50;;;;;;5054806;28;20214;-57
2022/12/29 08:09:15;;;;;;;2.22;0.75;;;16.80;55.50;;;;;;5055397;28;20179;-58
2022/12/29 08:11:42;;;;;;;1.80;0.77;;;16.80;55.40;;;;;;5054259;28;20171;-57
2022/12/29 08:14:08;;;;;;;1.52;0.98;;;16.70;55.40;;;;;;5055276;28;20224;-57
2022/12/29 08:16:33;;;;;;;4.47;1.10;;;16.80;55.40;;;;;;5054479;28;20219;-57
2022/12/29 08:18:59;;;;;;;1.55;0.80;;;16.80;55.30;;;;;;5054554;28;20178;-58
2022/12/29 08:21:25;;;;;;;2.88;0.90;;;16.70;55.30;;;;;;5055214;28;20306;-58
2022/12/29 08:23:50;;;;;;;1.55;1.00;;;16.70;55.40;;;;;;5053442;28;20236;-60
2022/12/29 08:26:16;;;;;;;1.38;0.70;;;16.70;55.30;;;;;;5054267;28;20682;-67
2022/12/29 08:28:41;;;;;;;2.55;0.60;;;16.80;55.60;;;;;;5054809;28;20573;-65
2022/12/29 08:31:10;;;;;;;1.65;0.98;;;16.80;55.40;;;;;;5054806;28;20634;-62
2022/12/29 08:33:36;;;;;;;2.95;1.02;;;16.70;55.50;;;;;;5053982;28;20249;-61
2022/12/29 08:36:02;;;;;;;3.33;0.90;;;16.80;56.30;;;;;;5054862;28;20663;-62
2022/12/29 08:38:28;;;;;;;3.00;1.10;;;16.80;56.50;;;;;;5054511;28;20175;-62
2022/12/29 08:40:54;;;;;;;4.70;1.00;;;16.80;56.60;;;;;;5054011;28;20229;-62
2022/12/29 08:43:20;;;;;;;3.78;1.50;;;16.80;56.90;;;;;;5054750;28;20175;-66
2022/12/29 08:45:45;;;;;;;6.25;1.15;;;16.80;56.70;;;;;;5053391;28;20276;-65
2022/12/29 08:48:11;;;;;;;2.63;1.02;;;16.80;56.70;;;;;;5054720;28;20240;-66
2022/12/29 08:50:36;;;;;;;3.15;0.98;;;16.80;57.50;;;;;;5054338;28;20575;-65
2022/12/29 08:53:02;;;;;;;3.65;1.10;;;16.90;57.30;;;;;;5053613;28;20645;-65
2022/12/29 08:55:27;;;;;;;3.85;1.25;;;16.90;56.80;;;;;;5054427;28;20174;-65
2022/12/29 08:57:53;;;;;;;4.60;1.30;;;16.90;57.60;;;;;;5054261;28;20175;-65
2022/12/29 09:00:20;;;;;;;2.38;0.93;;;16.90;57.10;;;;;;5053687;28;20221;-66
2022/12/29 09:02:45;;;;;;;4.10;1.00;;;16.80;56.90;;;;;;5054138;28;20187;-65
2022/12/29 09:05:11;;;;;;;2.20;0.90;;;16.80;57.40;;;;;;5054275;28;20207;-66
2022/12/29 09:07:36;;;;;;;3.05;1.02;;;16.80;57.80;;;;;;5053243;28;20175;-66
2022/12/29 09:10:02;;;;;;;4.45;1.17;;;16.80;57.00;;;;;;5054109;28;20199;-66
2022/12/29 09:12:27;;;;;;;2.60;0.90;;;16.70;58.00;;;;;;5054048;28;20175;-66
2022/12/29 09:14:53;;;;;;;3.33;1.20;;;16.80;57.50;;;;;;5052943;28;20175;-66
2022/12/29 09:20:03;;;;;;;2.15;1.02;;;16.70;57.40;;;;;;5054095;28;20260;-66
2022/12/29 09:22:29;;;;;;;3.08;1.00;;;16.70;57.20;;;;;;5053139;28;20186;-66
2022/12/29 09:24:54;;;;;;;1.83;0.90;;;16.70;57.40;;;;;;5053626;28;20171;-66
2022/12/29 09:27:20;;;;;;;2.92;1.13;;;16.70;57.10;;;;;;5053796;28;20202;-65
2022/12/29 09:29:45;;;;;;;2.90;1.20;;;16.70;56.60;;;;;;5052992;28;20664;-65
2022/12/29 09:32:11;;;;;;;2.83;1.15;;;16.60;56.90;;;;;;5053917;28;20199;-65
2022/12/29 09:34:36;;;;;;;2.65;1.30;;;16.60;56.30;;;;;;5053529;28;20213;-65
2022/12/29 09:37:02;;;;;;;4.15;1.30;;;16.60;56.40;;;;;;5052990;28;20585;-66
2022/12/29 09:39:27;;;;;;;5.70;1.45;;;16.60;56.50;;;;;;5053440;28;20644;-65
2022/12/29 09:42:13;;;;;;;3.55;1.17;;;16.60;56.30;;;;;;5052197;28;20211;-65
2022/12/29 09:44:49;;;;;;;4.78;1.50;;;16.60;56.70;;;;;;5053337;28;20178;-64
2022/12/29 09:47:15;;;;;;;4.38;1.55;;;16.60;56.00;;;;;;5052333;28;20257;-67
2022/12/29 09:49:49;;;;;;;2.92;1.20;;;16.60;56.90;;;;;;5052403;28;20217;-66
2022/12/29 09:52:18;;;;;;;3.72;1.00;;;16.60;56.40;;;;;;5055868;28;20694;-64
2022/12/29 09:55:01;;;;;;;3.38;1.27;;;16.60;56.10;;;;;;5051638;28;20699;-66
2022/12/29 09:57:29;;;;;;;4.30;1.35;;;16.60;56.20;;;;;;5052662;28;20266;-67
2022/12/29 10:00:09;;;;;;;4.50;1.48;;;16.70;55.90;;;;;;5035478;28;20248;-67
2022/12/29 10:02:44;;;;;;;4.78;0.93;;;16.70;55.90;;;;;;5052848;28;20167;-62
2022/12/29 10:05:20;;;;;;;3.08;1.30;;;16.70;56.10;;;;;;5052206;28;20175;-64
2022/12/29 10:08:06;;;;;;;3.75;1.58;;;16.70;56.60;;;;;;5051639;28;20632;-64
2022/12/29 10:10:40;;;;;;;4.70;1.17;;;16.70;56.20;;;;;;5051231;28;20179;-65
2022/12/29 10:13:05;;;;;;;3.50;1.27;;;16.80;56.00;;;;;;5035815;28;20201;-63
2022/12/29 10:15:44;;;;;;;3.58;1.33;;;16.80;56.00;;;;;;5052552;28;20625;-65
2022/12/29 10:18:12;;;;;;;5.45;1.48;;;16.80;56.20;;;;;;5050856;28;20595;-66
2022/12/29 10:20:52;;;;;;;3.47;1.25;;;16.80;56.10;;;;;;5052670;28;20167;-67
2022/12/29 10:23:27;;;;;;;5.45;1.63;;;16.80;56.00;;;;;;5051545;28;20228;-66
2022/12/29 10:25:57;;;;;;;4.50;1.20;;;16.80;56.00;;;;;;5050115;28;20210;-66
2022/12/29 10:28:25;;;;;;;9.35;2.00;;;16.80;56.00;;;;;;5053029;28;20270;-65
2022/12/29 10:30:52;;;;;;;2.80;1.20;;;16.80;56.30;;;;;;5051420;28;20232;-65
2022/12/29 10:33:44;;;;;;;4.38;1.33;;;16.80;56.30;;;;;;5052213;28;20175;-65
2022/12/29 10:36:24;;;;;;;4.80;1.55;;;16.70;56.20;;;;;;5051458;28;20187;-65
2022/12/29 10:39:04;;;;;;;3.22;1.23;;;16.70;56.10;;;;;;5042792;28;20232;-66
2022/12/29 10:41:44;;;;;;;2.78;1.20;;;16.70;56.10;;;;;;5057151;28;20228;-65
2022/12/29 10:44:12;;;;;;;1.98;1.17;;;16.70;56.10;;;;;;5055334;28;20582;-65
2022/12/29 10:46:38;;;;;;;4.82;1.33;;;16.70;56.10;;;;;;5069878;28;20639;-66
2022/12/29 10:49:05;;;;;;;4.00;1.30;;;16.70;56.10;;;;;;5072578;28;20652;-65
2022/12/29 10:51:33;;;;;;;3.70;1.35;;;16.70;56.00;;;;;;5071456;28;20193;-65
2022/12/29 10:54:02;;;;;;;2.88;1.20;;;16.70;56.00;;;;;;5068925;28;20254;-65
2022/12/29 10:56:39;;;;;;;2.08;0.95;;;16.70;56.00;;;;;;5052617;28;20175;-65
2022/12/29 10:59:23;;;;;;;2.75;1.42;;;16.70;56.60;;;;;;5035948;28;20178;-65
2022/12/29 11:02:30;;;;;;;4.45;1.17;;;16.70;56.00;;;;;;5052238;28;20582;-65
2022/12/29 11:05:19;;;;;;;3.40;1.20;;;16.70;56.00;;;;;;5046279;28;20556;-65
2022/12/29 11:07:47;;;;;;;1.25;0.80;;;16.70;56.00;;;;;;5034986;28;20270;-65
2022/12/29 11:10:32;;;;;;;2.13;1.05;;;16.70;56.00;;;;;;5034777;28;20203;-65
2022/12/29 11:13:03;;;;;;;3.58;1.10;;;16.70;55.90;;;;;;5071489;28;20192;-65
2022/12/29 11:15:39;;;;;;;2.53;1.00;;;16.70;55.90;;;;;;5071807;28;20182;-66
2022/12/29 11:18:04;;;;;;;2.63;1.08;;;16.70;55.90;;;;;;5072121;28;20233;-65
2022/12/29 11:20:30;;;;;;;4.07;1.40;;;16.70;55.90;;;;;;5071797;28;20179;-65
2022/12/29 11:22:55;;;;;;;4.25;1.38;;;16.70;55.90;;;;;;5072330;28;20628;-65
2022/12/29 11:25:21;;;;;;;2.90;1.30;;;16.70;55.90;;;;;;5071169;28;20198;-65
2022/12/29 11:27:56;;;;;;;2.45;1.30;;;16.70;55.90;;;;;;5071463;28;20189;-64
2022/12/29 11:30:24;;;;;;;5.03;1.70;;;16.70;55.90;;;;;;5072188;28;20303;-65
2022/12/29 11:32:53;;;;;;;3.25;1.35;;;16.70;55.80;;;;;;5072117;28;20257;-64
2022/12/29 11:35:32;;;;;;;2.35;1.20;;;16.70;55.90;;;;;;5071600;28;20171;-65
2022/12/29 11:37:58;;;;;;;3.10;1.13;;;16.70;55.80;;;;;;5074674;28;20185;-66
2022/12/29 11:40:23;;;;;;;2.63;0.95;;;16.70;55.90;;;;;;5075686;28;20174;-65
2022/12/29 11:43:02;;;;;;;2.13;1.10;;;16.70;55.80;;;;;;5073437;28;20202;-65
2022/12/29 11:45:32;;;;;;;4.03;1.50;;;16.70;55.80;;;;;;5068955;28;20657;-64
2022/12/29 11:48:08;;;;;;;3.92;1.40;;;16.70;55.80;;;;;;5055627;28;20179;-64
2022/12/29 11:50:36;;;;;;;2.10;1.30;;;16.70;55.80;;;;;;5053592;28;20209;-65
2022/12/29 11:53:03;;;;;;;4.05;1.23;;;16.70;55.80;;;;;;5038214;28;20178;-64
2022/12/29 11:55:29;;;;;;;3.00;1.50;;;16.70;55.80;;;;;;5055746;28;20201;-65
2022/12/29 11:57:55;;;;;;;2.15;1.15;;;16.70;56.40;;;;;;5055314;28;20543;-67
2022/12/29 12:00:21;;;;;;;4.72;1.42;;;16.70;55.80;;;;;;5055505;28;20221;-62
2022/12/29 12:03:16;;;;;;;3.05;1.30;;;16.70;56.10;;;;;;5036867;28;20182;-65
2022/12/29 12:05:54;;;;;;;5.20;1.27;;;16.70;56.20;;;;;;5054634;28;20242;-65
2022/12/29 12:08:41;;;;;;;5.90;1.55;;;16.80;56.00;;;;;;5037966;28;20175;-65
2022/12/29 12:11:11;;;;;;;4.10;1.42;;;16.80;56.10;;;;;;5053142;28;20185;-65
2022/12/29 12:13:38;;;;;;;3.63;1.50;;;16.90;56.20;;;;;;5053804;28;20194;-68
2022/12/29 12:16:22;;;;;;;3.03;1.38;;;17.00;56.20;;;;;;5053706;28;20704;-72
2022/12/29 12:18:49;;;;;;;4.88;1.08;;;17.20;56.70;;;;;;5037483;28;20175;-66
2022/12/29 12:21:38;;;;;;;4.13;1.50;;;17.40;56.10;;;;;;5053995;28;20236;-64
2022/12/29 12:24:22;;;;;;;3.67;1.17;;;17.70;55.40;;;;;;5054469;28;20182;-65
2022/12/29 12:26:48;;;;;;;2.38;1.10;;;18.00;54.90;;;;;;5054379;28;20665;-65
2022/12/29 12:29:16;;;;;;;2.25;0.90;;;18.20;54.70;;;;;;5055013;28;20179;-64
2022/12/29 12:31:54;;;;;;;2.85;0.82;;;18.50;54.40;;;;;;5052768;28;20183;-65
2022/12/29 12:34:26;;;;;;;2.45;0.95;;;18.50;54.20;;;;;;5061233;28;20179;-65
2022/12/29 12:37:14;;;;;;;2.17;1.20;;;18.60;54.20;;;;;;5037595;28;20588;-66
2022/12/29 12:40:07;;;;;;;3.22;1.20;;;18.70;54.00;;;;;;5052964;28;20185;-66
2022/12/29 12:42:40;;;;;;;5.45;1.83;;;18.80;53.90;;;;;;5037717;28;20579;-66
2022/12/29 12:45:28;;;;;;;7.55;1.52;;;18.90;53.70;;;;;;5055030;28;20282;-65
2022/12/29 12:47:58;;;;;;;3.38;1.23;;;19.00;53.50;;;;;;5073034;28;20585;-65
2022/12/29 12:50:30;;;;;;;6.00;1.25;;;19.00;53.50;;;;;;5073455;28;20159;-65
2022/12/29 12:53:02;;;;;;;4.60;1.55;;;19.10;53.40;;;;;;5072498;28;20180;-65
2022/12/29 12:55:30;;;;;;;6.80;1.42;;;19.20;53.40;;;;;;5074470;28;20198;-65
2022/12/29 12:58:06;;;;;;;2.75;1.00;;;19.20;53.30;;;;;;5073349;28;20166;-66
2022/12/29 13:00:36;;;;;;;3.13;1.30;;;19.20;53.20;;;;;;5073620;28;20257;-65
2022/12/29 13:03:06;;;;;;;3.50;1.35;;;19.20;53.30;;;;;;5057133;28;20171;-66
2022/12/29 13:05:40;;;;;;;4.22;1.45;;;19.10;53.30;;;;;;5074041;28;20199;-65
2022/12/29 13:08:31;;;;;;;4.47;1.15;;;19.20;53.30;;;;;;5072286;28;20174;-66
2022/12/29 13:11:14;;;;;;;5.80;1.67;;;19.20;53.20;;;;;;5073382;28;20184;-66
2022/12/29 13:13:46;;;;;;;3.53;1.45;;;19.20;53.30;;;;;;5072078;28;20248;-66
2022/12/29 13:16:53;;;;;;;3.53;1.20;;;19.10;53.40;;;;;;5072806;28;20186;-65
2022/12/29 13:20:00;;;;;;;2.65;1.00;;;19.20;53.30;;;;;;5073999;28;20186;-66
2022/12/29 13:22:43;;;;;;;3.33;1.25;;;19.20;53.40;;;;;;5051913;28;20175;-65
2022/12/29 13:25:36;;;;;;;3.33;1.20;;;19.20;53.40;;;;;;5051737;28;20179;-65
2022/12/29 13:28:29;;;;;;;3.28;1.40;;;19.20;53.40;;;;;;5067686;28;20193;-65
2022/12/29 13:31:04;;;;;;;3.13;0.93;;;19.20;53.50;;;;;;5072284;28;20166;-65
2022/12/29 13:33:41;;;;;;;3.72;1.10;;;19.20;53.50;;;;;;5072566;28;20181;-65
2022/12/29 13:36:27;;;;;;;4.32;1.30;;;19.20;53.40;;;;;;5071624;28;20634;-66
2022/12/29 13:39:15;;;;;;;4.30;1.40;;;19.20;53.40;;;;;;5056628;28;20253;-66
2022/12/29 13:41:44;;;;;;;2.83;1.40;;;19.10;53.50;;;;;;5074255;28;20171;-60